Paignton, United Kingdom
Current Conditions -  °F | °C
As of 10:50 AM on Saturday 01 Nov 2014 (Local Time) from EGTE Reporting Station
Few Clouds Few Clouds  
Wind Chill: 57°   Ceiling: Unl
Heat Index: 57°   Visibility: 6mi
Dew Point: 50°   Wind: 12mph
Humidity: 77%   Direction: 220°SW
Pressure: 30"   Gusts: NA
Location:  50.44°N, 3.57°W
Report Text: EGTE 011050Z 22010KT 9999 FEW020 14/10 Q1016
Loading
Personal Weather Stations






























Interactive Weather Map
Tropical Storm Tracking
New forecast layout! Learn more

10-Day Weather Forecast

Advertisements
Track Severe Weather on mobile